Time;durP1;ratioP1;P1;durP2;ratioP2;P2;SDS_P1;SDS_P2;PMS_P1;PMS_P2;Temp;Humidity;BMP_temperature;BMP_pressure;BME280_temperature;BME280_humidity;BME280_pressure;Samples;Min_cycle;Max_cycle;Signal;HPM_P1;HPM_P2
2023/12/12 00:00:00;;;;;;;150.35;71.05;;;;;;;;;;5587284;31;34542;-73
2023/12/12 00:03:13;;;;;;;155.02;70.03;;;;;;;;;;5587252;31;34941;-73
2023/12/12 00:06:16;;;;;;;160.85;73.45;;;;;;;;;;5587351;31;35100;-73
2023/12/12 00:09:18;;;;;;;180.52;74.07;;;;;;;;;;5587761;31;34412;-74
2023/12/12 00:12:21;;;;;;;165.32;73.35;;;;;;;;;;5587270;31;34992;-74
2023/12/12 00:15:23;;;;;;;136.35;68.20;;;;;;;;;;5586395;31;34466;-73
2023/12/12 00:18:26;;;;;;;151.23;72.25;;;;;;;;;;5587229;31;35038;-74
2023/12/12 00:21:29;;;;;;;158.05;72.05;;;;;;;;;;5586360;31;34407;-74
2023/12/12 00:24:31;;;;;;;146.62;70.90;;;;;;;;;;5587270;31;34840;-73
2023/12/12 00:27:36;;;;;;;138.48;69.03;;;;;;;;;;5587132;31;34457;-74
2023/12/12 00:30:39;;;;;;;140.10;68.30;;;;;;;;;;5587368;31;34333;-74
2023/12/12 00:33:41;;;;;;;133.75;66.93;;;;;;;;;;5586871;31;34366;-74
2023/12/12 00:36:43;;;;;;;138.27;66.82;;;;;;;;;;5589256;31;34361;-74
2023/12/12 00:39:46;;;;;;;123.15;63.85;;;;;;;;;;5589583;31;33868;-73
2023/12/12 00:42:49;;;;;;;120.22;64.07;;;;;;;;;;5589824;31;34570;-72
2023/12/12 00:45:51;;;;;;;123.57;63.30;;;;;;;;;;5588904;31;34529;-74
2023/12/12 00:48:54;;;;;;;114.40;61.13;;;;;;;;;;5589608;31;35039;-74
2023/12/12 00:51:57;;;;;;;115.32;63.38;;;;;;;;;;5589520;31;34486;-75
2023/12/12 00:55:00;;;;;;;131.37;64.80;;;;;;;;;;5589308;31;35288;-73
2023/12/12 00:58:03;;;;;;;120.15;63.05;;;;;;;;;;5589252;31;34365;-74
2023/12/12 01:01:06;;;;;;;114.37;62.30;;;;;;;;;;5589331;31;34417;-73
2023/12/12 01:04:09;;;;;;;122.93;66.43;;;;;;;;;;5589125;31;34204;-73
2023/12/12 01:07:14;;;;;;;126.75;65.62;;;;;;;;;;5589230;31;34312;-73
2023/12/12 01:10:16;;;;;;;127.85;66.90;;;;;;;;;;5589452;31;35032;-73
2023/12/12 01:13:19;;;;;;;136.55;68.50;;;;;;;;;;5589586;31;35022;-74
2023/12/12 01:16:21;;;;;;;133.30;67.45;;;;;;;;;;5589131;31;34625;-73
2023/12/12 01:19:24;;;;;;;133.87;66.70;;;;;;;;;;5589314;31;35114;-73
2023/12/12 01:22:27;;;;;;;141.18;69.12;;;;;;;;;;5589452;31;35118;-73
2023/12/12 01:25:31;;;;;;;122.22;63.90;;;;;;;;;;5588408;31;34510;-74
2023/12/12 01:28:33;;;;;;;123.45;65.57;;;;;;;;;;5589142;31;34442;-73
2023/12/12 01:31:36;;;;;;;153.70;69.97;;;;;;;;;;5589115;31;35140;-75
2023/12/12 01:34:38;;;;;;;123.80;63.53;;;;;;;;;;5589011;31;34475;-74
2023/12/12 01:37:41;;;;;;;118.95;63.40;;;;;;;;;;5589112;31;35019;-74
2023/12/12 01:40:44;;;;;;;120.32;64.00;;;;;;;;;;5589476;31;35060;-74
2023/12/12 01:43:46;;;;;;;119.37;65.25;;;;;;;;;;5589018;31;34736;-74
2023/12/12 01:46:50;;;;;;;116.93;66.18;;;;;;;;;;5588213;31;34289;-74
2023/12/12 01:49:53;;;;;;;121.28;66.00;;;;;;;;;;5589244;31;34919;-74
2023/12/12 01:52:56;;;;;;;122.10;65.47;;;;;;;;;;5589078;31;34412;-74
2023/12/12 01:56:00;;;;;;;112.05;63.92;;;;;;;;;;5589180;31;35284;-74
2023/12/12 01:59:04;;;;;;;120.50;64.87;;;;;;;;;;5588852;31;35161;-74
2023/12/12 02:02:09;;;;;;;111.40;62.25;;;;;;;;;;5588041;31;35013;-73
2023/12/12 02:05:12;;;;;;;112.57;60.42;;;;;;;;;;5588825;31;34422;-73
2023/12/12 02:08:16;;;;;;;111.43;61.15;;;;;;;;;;5588604;31;34293;-73
2023/12/12 02:11:19;;;;;;;105.20;58.95;;;;;;;;;;5588084;31;35080;-74
2023/12/12 02:14:21;;;;;;;110.43;59.08;;;;;;;;;;5588790;31;34904;-74
2023/12/12 02:17:24;;;;;;;105.35;59.63;;;;;;;;;;5588668;31;34372;-74
2023/12/12 02:20:26;;;;;;;105.75;61.95;;;;;;;;;;5588735;31;34434;-74
2023/12/12 02:23:30;;;;;;;109.05;62.00;;;;;;;;;;5588633;31;35072;-74
2023/12/12 02:26:32;;;;;;;121.37;66.53;;;;;;;;;;5588658;31;34870;-74
2023/12/12 02:29:35;;;;;;;122.62;66.37;;;;;;;;;;5588743;31;35081;-74
2023/12/12 02:32:37;;;;;;;115.95;66.22;;;;;;;;;;5588026;31;34272;-75
2023/12/12 02:35:40;;;;;;;108.15;62.17;;;;;;;;;;5588619;31;35034;-74
2023/12/12 02:38:43;;;;;;;136.50;68.03;;;;;;;;;;5588557;31;34496;-75
2023/12/12 02:41:45;;;;;;;124.35;65.75;;;;;;;;;;5588861;31;34548;-75
2023/12/12 02:44:49;;;;;;;120.25;64.68;;;;;;;;;;5588508;31;34449;-74
2023/12/12 02:47:51;;;;;;;113.68;64.50;;;;;;;;;;5588633;31;35127;-75
2023/12/12 02:50:54;;;;;;;122.53;62.75;;;;;;;;;;5589127;31;34474;-75
2023/12/12 02:53:57;;;;;;;111.20;61.08;;;;;;;;;;5588982;31;35078;-75
2023/12/12 02:56:59;;;;;;;105.45;60.30;;;;;;;;;;5588540;31;33955;-75
2023/12/12 03:00:03;;;;;;;112.28;62.25;;;;;;;;;;5588434;31;34520;-75
2023/12/12 03:03:06;;;;;;;111.18;60.97;;;;;;;;;;5588508;31;34481;-75
2023/12/12 03:06:09;;;;;;;113.12;62.28;;;;;;;;;;5588838;31;34414;-75
2023/12/12 03:09:11;;;;;;;94.62;56.92;;;;;;;;;;5587747;31;34368;-74
2023/12/12 03:12:14;;;;;;;98.22;58.15;;;;;;;;;;5588372;31;34314;-75
2023/12/12 03:15:17;;;;;;;103.07;59.63;;;;;;;;;;5588178;31;35233;-75
2023/12/12 03:18:19;;;;;;;99.75;58.75;;;;;;;;;;5588436;31;34561;-73
2023/12/12 03:21:22;;;;;;;98.15;59.70;;;;;;;;;;5588384;31;34681;-73
2023/12/12 03:24:25;;;;;;;100.18;59.40;;;;;;;;;;5588082;31;34448;-73
2023/12/12 03:27:27;;;;;;;94.62;56.55;;;;;;;;;;5587921;31;35221;-74
2023/12/12 03:30:31;;;;;;;93.03;56.83;;;;;;;;;;5588174;31;35073;-74
2023/12/12 03:33:33;;;;;;;97.35;58.70;;;;;;;;;;5587933;31;34995;-74
2023/12/12 03:36:40;;;;;;;92.47;58.00;;;;;;;;;;5588133;31;35011;-74
2023/12/12 03:39:42;;;;;;;95.18;58.87;;;;;;;;;;5587796;31;35033;-74
2023/12/12 03:42:45;;;;;;;96.75;59.08;;;;;;;;;;5587759;31;34383;-74
2023/12/12 03:45:47;;;;;;;104.25;60.38;;;;;;;;;;5587909;31;34347;-73
2023/12/12 03:48:50;;;;;;;98.47;59.45;;;;;;;;;;5587626;31;34259;-74
2023/12/12 03:51:52;;;;;;;97.05;58.58;;;;;;;;;;5587714;31;34292;-74
2023/12/12 03:54:55;;;;;;;100.05;61.97;;;;;;;;;;5587656;31;34305;-73
2023/12/12 03:57:58;;;;;;;107.53;60.47;;;;;;;;;;5587675;31;34434;-75
2023/12/12 04:01:01;;;;;;;102.20;59.70;;;;;;;;;;5587653;31;34467;-74
2023/12/12 04:04:04;;;;;;;102.10;58.53;;;;;;;;;;5587801;31;34576;-75
2023/12/12 04:07:06;;;;;;;97.40;57.72;;;;;;;;;;5587639;31;34988;-75
2023/12/12 04:10:09;;;;;;;119.28;67.07;;;;;;;;;;5588270;31;34633;-75
2023/12/12 04:13:11;;;;;;;112.00;63.87;;;;;;;;;;5589968;31;34372;-75
2023/12/12 04:16:14;;;;;;;116.40;64.50;;;;;;;;;;5589917;31;34520;-75
2023/12/12 04:19:16;;;;;;;95.15;56.58;;;;;;;;;;5589879;31;34380;-75
2023/12/12 04:22:19;;;;;;;101.12;61.13;;;;;;;;;;5589959;31;34258;-75
2023/12/12 04:25:23;;;;;;;95.47;57.58;;;;;;;;;;5589245;31;34361;-75
2023/12/12 04:28:25;;;;;;;100.72;62.05;;;;;;;;;;5589731;31;35332;-75
2023/12/12 04:31:28;;;;;;;99.60;59.75;;;;;;;;;;5589720;31;35101;-75
2023/12/12 04:34:32;;;;;;;94.85;57.55;;;;;;;;;;5589670;31;32671;-75
2023/12/12 04:37:35;;;;;;;100.60;61.92;;;;;;;;;;5589690;31;35053;-75
2023/12/12 04:40:38;;;;;;;94.45;58.03;;;;;;;;;;5589597;31;35107;-75
2023/12/12 04:43:40;;;;;;;98.47;58.65;;;;;;;;;;5589506;31;34720;-75
2023/12/12 04:46:43;;;;;;;109.47;64.53;;;;;;;;;;5589880;31;35054;-75
2023/12/12 04:49:46;;;;;;;98.70;61.53;;;;;;;;;;5589291;31;35107;-74
2023/12/12 04:52:49;;;;;;;96.50;60.97;;;;;;;;;;5589705;31;34284;-74
2023/12/12 04:55:51;;;;;;;93.68;58.00;;;;;;;;;;5589358;31;34277;-74
2023/12/12 04:58:54;;;;;;;103.20;59.97;;;;;;;;;;5589243;31;35235;-74
2023/12/12 05:01:56;;;;;;;86.82;56.88;;;;;;;;;;5589381;31;35099;-73
2023/12/12 05:04:59;;;;;;;93.53;58.72;;;;;;;;;;5589159;31;34977;-74
2023/12/12 05:08:02;;;;;;;95.22;58.75;;;;;;;;;;5589094;31;35068;-74
2023/12/12 05:11:05;;;;;;;100.65;60.45;;;;;;;;;;5589081;31;35022;-74
2023/12/12 05:14:10;;;;;;;100.25;60.05;;;;;;;;;;5589044;31;34422;-73
2023/12/12 05:17:13;;;;;;;109.53;61.95;;;;;;;;;;5588768;31;34169;-74
2023/12/12 05:20:15;;;;;;;94.68;58.87;;;;;;;;;;5589506;31;34290;-74
2023/12/12 05:23:19;;;;;;;105.60;61.17;;;;;;;;;;5589006;31;35038;-73
2023/12/12 05:26:21;;;;;;;106.18;61.53;;;;;;;;;;5588976;31;35064;-74
2023/12/12 05:29:24;;;;;;;97.32;60.67;;;;;;;;;;5588906;31;34683;-74
2023/12/12 05:32:26;;;;;;;105.00;60.60;;;;;;;;;;5588898;31;34458;-74
2023/12/12 05:35:29;;;;;;;103.40;60.20;;;;;;;;;;5588977;31;34995;-74
2023/12/12 05:38:32;;;;;;;100.10;61.80;;;;;;;;;;5589045;31;34542;-74
2023/12/12 05:41:37;;;;;;;100.35;63.67;;;;;;;;;;5588934;31;34606;-74
2023/12/12 05:44:40;;;;;;;103.07;62.92;;;;;;;;;;5588823;31;34403;-74
2023/12/12 05:47:43;;;;;;;112.37;65.72;;;;;;;;;;5588747;31;34266;-74
2023/12/12 05:50:45;;;;;;;115.85;69.62;;;;;;;;;;5588943;31;34559;-74
2023/12/12 05:53:48;;;;;;;108.93;65.30;;;;;;;;;;5588832;31;34313;-74
2023/12/12 05:56:50;;;;;;;105.70;64.90;;;;;;;;;;5588785;31;34421;-75
2023/12/12 05:59:53;;;;;;;113.22;65.07;;;;;;;;;;5588715;31;34605;-75
2023/12/12 06:02:55;;;;;;;100.25;60.45;;;;;;;;;;5588876;31;34475;-75
2023/12/12 06:05:58;;;;;;;107.22;64.03;;;;;;;;;;5588928;31;35021;-75
2023/12/12 06:09:01;;;;;;;97.28;60.17;;;;;;;;;;5588609;31;35100;-75
2023/12/12 06:12:04;;;;;;;113.18;64.15;;;;;;;;;;5588845;31;35113;-75
2023/12/12 06:15:07;;;;;;;104.03;60.88;;;;;;;;;;5588904;31;34602;-75
2023/12/12 06:18:10;;;;;;;104.00;62.75;;;;;;;;;;5588626;31;34260;-74
2023/12/12 06:21:13;;;;;;;108.50;64.55;;;;;;;;;;5588339;31;34648;-75
2023/12/12 06:24:15;;;;;;;95.30;60.88;;;;;;;;;;5587948;31;34364;-76
2023/12/12 06:27:18;;;;;;;105.32;62.80;;;;;;;;;;5588212;31;34492;-74
2023/12/12 06:30:24;;;;;;;91.70;60.15;;;;;;;;;;5588102;31;34584;-75
2023/12/12 06:33:28;;;;;;;99.75;61.35;;;;;;;;;;5587584;31;34474;-74
2023/12/12 06:36:32;;;;;;;97.62;62.00;;;;;;;;;;5588035;31;34663;-74
2023/12/12 06:39:34;;;;;;;99.45;61.83;;;;;;;;;;5588078;31;34213;-74
2023/12/12 06:42:37;;;;;;;89.97;59.88;;;;;;;;;;5588097;31;35089;-74
2023/12/12 06:45:39;;;;;;;93.90;60.92;;;;;;;;;;5588220;31;34439;-74
2023/12/12 06:48:42;;;;;;;92.00;61.50;;;;;;;;;;5588024;31;34336;-75
2023/12/12 06:51:45;;;;;;;88.28;58.38;;;;;;;;;;5588571;31;34339;-74
2023/12/12 06:54:47;;;;;;;90.60;59.17;;;;;;;;;;5588073;31;35087;-74
2023/12/12 06:57:50;;;;;;;93.15;59.10;;;;;;;;;;5587175;31;35068;-75
2023/12/12 07:00:53;;;;;;;84.35;56.30;;;;;;;;;;5588015;31;35326;-75
2023/12/12 07:03:57;;;;;;;88.62;55.45;;;;;;;;;;5587205;31;34542;-75
2023/12/12 07:07:00;;;;;;;89.28;57.90;;;;;;;;;;5588283;31;34404;-74
2023/12/12 07:10:06;;;;;;;80.95;53.87;;;;;;;;;;5587069;31;35068;-76
2023/12/12 07:13:09;;;;;;;79.80;53.63;;;;;;;;;;5587806;31;34266;-74
2023/12/12 07:16:29;;;;;;;82.05;54.47;;;;;;;;;;5587931;31;34274;-75
2023/12/12 07:19:31;;;;;;;84.18;54.33;;;;;;;;;;5587165;31;35047;-75
2023/12/12 07:22:34;;;;;;;79.55;51.37;;;;;;;;;;5587937;31;34943;-75
2023/12/12 07:25:38;;;;;;;81.63;53.33;;;;;;;;;;5587948;31;35185;-75
2023/12/12 07:28:40;;;;;;;82.68;53.17;;;;;;;;;;5587587;31;34597;-75
2023/12/12 07:31:46;;;;;;;79.20;51.47;;;;;;;;;;5587218;31;35228;-74
2023/12/12 07:34:49;;;;;;;78.53;50.97;;;;;;;;;;5587634;31;34399;-74
2023/12/12 07:37:52;;;;;;;82.68;52.15;;;;;;;;;;5587491;31;34479;-74
2023/12/12 07:40:54;;;;;;;82.03;51.33;;;;;;;;;;5587286;31;34546;-74
2023/12/12 07:43:57;;;;;;;77.28;50.75;;;;;;;;;;5586677;31;34347;-74
2023/12/12 07:47:02;;;;;;;77.07;50.88;;;;;;;;;;5587556;31;34583;-74
2023/12/12 07:50:06;;;;;;;81.37;51.80;;;;;;;;;;5587503;31;34961;-75
2023/12/12 07:53:08;;;;;;;85.12;55.28;;;;;;;;;;5586999;31;34343;-74
2023/12/12 07:56:12;;;;;;;81.68;55.45;;;;;;;;;;5587148;31;35070;-76
2023/12/12 07:59:14;;;;;;;87.37;57.75;;;;;;;;;;5587185;31;35003;-74
2023/12/12 08:02:17;;;;;;;90.50;59.67;;;;;;;;;;5587051;31;34492;-74
2023/12/12 08:05:20;;;;;;;89.78;60.33;;;;;;;;;;5586626;31;35171;-74
2023/12/12 08:08:22;;;;;;;88.32;61.08;;;;;;;;;;5587374;31;34570;-75
2023/12/12 08:11:27;;;;;;;82.37;56.72;;;;;;;;;;5587205;31;34193;-74
2023/12/12 08:14:30;;;;;;;87.90;57.15;;;;;;;;;;5586736;31;35063;-75
2023/12/12 08:17:33;;;;;;;86.20;59.35;;;;;;;;;;5586184;31;34664;-76
2023/12/12 08:20:36;;;;;;;82.47;56.83;;;;;;;;;;5587026;31;35060;-75
2023/12/12 08:23:41;;;;;;;79.32;54.08;;;;;;;;;;5586839;31;34392;-77
2023/12/12 08:26:44;;;;;;;83.65;52.95;;;;;;;;;;5587067;31;34417;-77
2023/12/12 08:29:47;;;;;;;74.75;49.90;;;;;;;;;;5586956;31;35034;-77
2023/12/12 08:32:49;;;;;;;62.72;42.25;;;;;;;;;;5586595;31;35333;-77
2023/12/12 08:35:52;;;;;;;71.95;39.40;;;;;;;;;;5586475;31;35153;-76
2023/12/12 08:38:57;;;;;;;89.85;34.58;;;;;;;;;;5586516;31;35066;-74
2023/12/12 08:42:00;;;;;;;70.95;32.72;;;;;;;;;;5586748;31;34417;-74
2023/12/12 08:45:03;;;;;;;62.42;28.25;;;;;;;;;;5586499;31;35138;-74
2023/12/12 08:48:05;;;;;;;33.67;17.98;;;;;;;;;;5586683;31;34410;-74
2023/12/12 08:51:08;;;;;;;33.67;17.60;;;;;;;;;;5585897;31;34614;-75
2023/12/12 08:54:11;;;;;;;34.85;15.00;;;;;;;;;;5586423;31;35046;-74
2023/12/12 08:57:17;;;;;;;30.42;15.95;;;;;;;;;;5588255;31;34457;-73
2023/12/12 09:00:21;;;;;;;25.42;12.63;;;;;;;;;;5589029;31;35066;-73
2023/12/12 09:03:24;;;;;;;21.08;9.48;;;;;;;;;;5589042;31;35242;-72
2023/12/12 09:06:27;;;;;;;27.17;12.60;;;;;;;;;;5588097;31;34422;-73
2023/12/12 09:09:31;;;;;;;14.35;6.50;;;;;;;;;;5589256;31;35053;-73
2023/12/12 09:12:34;;;;;;;16.02;7.82;;;;;;;;;;5589017;31;35190;-73
2023/12/12 09:15:36;;;;;;;25.98;12.90;;;;;;;;;;5588751;31;34366;-72
2023/12/12 09:18:39;;;;;;;46.97;27.52;;;;;;;;;;5588863;31;34915;-72
2023/12/12 09:21:42;;;;;;;53.15;33.70;;;;;;;;;;5588828;31;34423;-72
2023/12/12 09:24:44;;;;;;;54.47;33.80;;;;;;;;;;5589247;31;34421;-72
2023/12/12 09:27:46;;;;;;;52.10;33.55;;;;;;;;;;5589128;31;34291;-71
2023/12/12 09:30:49;;;;;;;53.33;34.05;;;;;;;;;;5588682;31;35055;-73
2023/12/12 09:33:52;;;;;;;56.58;33.38;;;;;;;;;;5588702;31;34559;-71
2023/12/12 09:36:55;;;;;;;49.17;31.00;;;;;;;;;;5588965;31;34161;-73
2023/12/12 09:39:57;;;;;;;55.08;32.50;;;;;;;;;;5589008;31;34310;-72
2023/12/12 09:43:05;;;;;;;49.75;31.00;;;;;;;;;;5588853;31;34421;-73
2023/12/12 09:46:08;;;;;;;43.65;29.35;;;;;;;;;;5589167;31;34545;-72
2023/12/12 09:49:11;;;;;;;49.63;29.40;;;;;;;;;;5589079;31;35102;-73
2023/12/12 09:52:16;;;;;;;43.33;28.42;;;;;;;;;;5588918;31;34346;-73
2023/12/12 09:55:22;;;;;;;46.88;28.55;;;;;;;;;;5588903;31;34978;-72
2023/12/12 09:58:24;;;;;;;44.50;28.52;;;;;;;;;;5588872;31;35051;-73
2023/12/12 10:01:27;;;;;;;43.53;26.95;;;;;;;;;;5588749;31;34548;-72
2023/12/12 10:04:31;;;;;;;45.40;27.85;;;;;;;;;;5588699;31;34616;-72
2023/12/12 10:07:34;;;;;;;38.95;24.27;;;;;;;;;;5587473;31;34299;-72
2023/12/12 10:10:40;;;;;;;34.42;21.25;;;;;;;;;;5588713;31;34258;-73
2023/12/12 10:13:50;;;;;;;29.10;17.10;;;;;;;;;;5588929;31;35133;-73
2023/12/12 10:17:04;;;;;;;28.67;16.52;;;;;;;;;;5588743;31;34379;-72
2023/12/12 10:20:10;;;;;;;30.12;17.33;;;;;;;;;;5588668;31;34989;-72
2023/12/12 10:23:13;;;;;;;24.45;10.93;;;;;;;;;;5588571;31;35108;-73
2023/12/12 10:26:23;;;;;;;23.90;10.27;;;;;;;;;;5588703;31;34023;-74
2023/12/12 10:29:26;;;;;;;19.92;6.12;;;;;;;;;;5588731;31;35137;-74
2023/12/12 10:32:29;;;;;;;15.63;4.90;;;;;;;;;;5588787;31;34491;-72
2023/12/12 10:35:33;;;;;;;15.63;4.90;;;;;;;;;;5587934;31;35298;-73
2023/12/12 10:38:39;;;;;;;12.60;4.10;;;;;;;;;;5588994;31;34418;-73
2023/12/12 10:41:57;;;;;;;12.60;3.92;;;;;;;;;;5588804;31;34440;-73
2023/12/12 10:45:01;;;;;;;13.32;3.90;;;;;;;;;;5587793;31;34434;-74
2023/12/12 10:48:05;;;;;;;12.27;3.90;;;;;;;;;;5588355;31;34472;-73
2023/12/12 10:51:09;;;;;;;18.00;4.57;;;;;;;;;;5587526;31;34199;-73
2023/12/12 10:54:13;;;;;;;13.13;4.37;;;;;;;;;;5588052;31;34976;-73
2023/12/12 10:57:17;;;;;;;18.30;10.40;;;;;;;;;;5589287;31;34177;-73
2023/12/12 11:00:20;;;;;;;31.85;19.60;;;;;;;;;;5589108;31;34425;-74
2023/12/12 11:03:23;;;;;;;35.47;19.27;;;;;;;;;;5587976;31;34154;-73
2023/12/12 11:06:26;;;;;;;30.25;19.75;;;;;;;;;;5590893;31;35022;-71
2023/12/12 11:09:31;;;;;;;35.47;19.65;;;;;;;;;;5588562;31;34319;-73
2023/12/12 11:12:40;;;;;;;30.83;16.40;;;;;;;;;;5590844;31;34996;-73
2023/12/12 11:15:47;;;;;;;25.77;16.83;;;;;;;;;;5589116;31;34915;-74
2023/12/12 11:18:56;;;;;;;30.00;17.08;;;;;;;;;;5588480;31;34439;-74
2023/12/12 11:21:59;;;;;;;32.92;17.15;;;;;;;;;;5587765;31;34542;-74
2023/12/12 11:25:10;;;;;;;21.95;15.38;;;;;;;;;;5588031;31;35054;-74
2023/12/12 11:28:13;;;;;;;26.58;15.13;;;;;;;;;;5587881;31;34992;-73
2023/12/12 11:31:22;;;;;;;20.40;12.10;;;;;;;;;;5587840;31;35002;-73
2023/12/12 11:34:25;;;;;;;27.27;13.35;;;;;;;;;;5587690;31;34342;-73
2023/12/12 11:37:40;;;;;;;22.92;13.57;;;;;;;;;;5587738;31;34507;-73
2023/12/12 11:41:03;;;;;;;23.25;12.18;;;;;;;;;;5587467;31;34173;-75
2023/12/12 11:44:07;;;;;;;26.65;12.93;;;;;;;;;;5587827;31;34984;-73
2023/12/12 11:47:13;;;;;;;24.23;12.20;;;;;;;;;;5587693;31;34414;-73
2023/12/12 11:50:26;;;;;;;24.33;12.25;;;;;;;;;;5587799;31;34214;-73
2023/12/12 11:53:37;;;;;;;18.52;11.43;;;;;;;;;;5586669;31;35006;-74
2023/12/12 11:56:40;;;;;;;26.52;11.30;;;;;;;;;;5587356;31;34306;-74
2023/12/12 11:59:43;;;;;;;23.23;10.55;;;;;;;;;;5587345;31;34444;-74
2023/12/12 12:02:45;;;;;;;21.45;8.73;;;;;;;;;;5587251;31;34340;-73
2023/12/12 12:05:48;;;;;;;13.80;5.03;;;;;;;;;;5587114;31;34378;-74
2023/12/12 12:08:51;;;;;;;9.00;2.72;;;;;;;;;;5587100;31;35329;-74
2023/12/12 12:11:54;;;;;;;12.20;2.60;;;;;;;;;;5586910;31;34385;-73
2023/12/12 12:15:06;;;;;;;12.35;3.28;;;;;;;;;;5584784;31;77571;-74
2023/12/12 12:18:25;;;;;;;9.45;2.75;;;;;;;;;;5587190;31;35010;-73
2023/12/12 12:21:27;;;;;;;17.17;3.20;;;;;;;;;;5587081;31;34349;-74
2023/12/12 12:24:40;;;;;;;11.65;3.00;;;;;;;;;;5586646;31;34370;-73
2023/12/12 12:27:52;;;;;;;12.52;2.67;;;;;;;;;;5586982;31;35057;-74
2023/12/12 12:30:58;;;;;;;11.38;2.95;;;;;;;;;;5588020;31;35038;-74
2023/12/12 12:34:00;;;;;;;11.38;3.12;;;;;;;;;;5588573;31;35175;-74
2023/12/12 12:37:04;;;;;;;11.98;2.70;;;;;;;;;;5589550;31;34435;-73
2023/12/12 12:40:11;;;;;;;8.00;2.50;;;;;;;;;;5589743;31;34620;-74
2023/12/12 12:43:17;;;;;;;9.82;2.65;;;;;;;;;;5589603;31;34459;-73
2023/12/12 12:46:20;;;;;;;10.68;2.80;;;;;;;;;;5589508;31;34411;-74
2023/12/12 12:49:23;;;;;;;9.75;2.50;;;;;;;;;;5589634;31;34237;-74
2023/12/12 12:52:26;;;;;;;10.15;2.58;;;;;;;;;;5589543;31;34626;-73
2023/12/12 12:55:28;;;;;;;8.10;2.15;;;;;;;;;;5589352;31;34997;-73
2023/12/12 12:58:33;;;;;;;24.60;13.65;;;;;;;;;;5588911;31;33935;-72
2023/12/12 13:01:40;;;;;;;28.12;14.10;;;;;;;;;;5589375;31;35014;-73
2023/12/12 13:04:43;;;;;;;24.98;14.43;;;;;;;;;;5589281;31;34657;-72
2023/12/12 13:07:45;;;;;;;31.73;15.50;;;;;;;;;;5589183;31;34302;-73
2023/12/12 13:10:48;;;;;;;30.48;15.98;;;;;;;;;;5588329;31;34677;-72
2023/12/12 13:13:53;;;;;;;26.90;14.82;;;;;;;;;;5588763;31;35186;-72
2023/12/12 13:16:55;;;;;;;24.33;14.20;;;;;;;;;;5589367;31;34274;-71
2023/12/12 13:20:00;;;;;;;23.98;13.43;;;;;;;;;;5588918;31;34398;-72
2023/12/12 13:23:03;;;;;;;22.08;12.43;;;;;;;;;;5588806;31;34575;-72
2023/12/12 13:26:06;;;;;;;23.33;12.23;;;;;;;;;;5588762;31;34977;-73
2023/12/12 13:29:09;;;;;;;26.30;12.37;;;;;;;;;;5588236;31;34582;-73
2023/12/12 13:32:11;;;;;;;26.10;13.27;;;;;;;;;;5589260;31;34303;-73
2023/12/12 13:35:17;;;;;;;25.88;13.00;;;;;;;;;;5588715;31;33096;-73
2023/12/12 13:38:36;;;;;;;29.20;13.48;;;;;;;;;;5588755;31;34216;-73
2023/12/12 13:41:43;;;;;;;32.55;13.15;;;;;;;;;;5588112;31;34368;-72
2023/12/12 13:44:46;;;;;;;25.40;13.07;;;;;;;;;;5588290;31;35134;-72
2023/12/12 13:47:48;;;;;;;27.20;13.32;;;;;;;;;;5588521;31;35215;-72
2023/12/12 13:50:51;;;;;;;29.15;13.85;;;;;;;;;;5588310;31;35045;-72
2023/12/12 13:53:55;;;;;;;25.50;13.57;;;;;;;;;;5588596;31;35505;-72
2023/12/12 13:56:57;;;;;;;32.72;13.15;;;;;;;;;;5587941;31;34343;-72
2023/12/12 14:00:00;;;;;;;27.73;13.25;;;;;;;;;;5588800;31;35021;-73
2023/12/12 14:03:05;;;;;;;29.98;12.82;;;;;;;;;;5587805;31;34384;-72
2023/12/12 14:06:08;;;;;;;26.77;12.35;;;;;;;;;;5588716;31;34402;-72
2023/12/12 14:09:11;;;;;;;24.42;11.77;;;;;;;;;;5589016;31;34965;-72
2023/12/12 14:12:14;;;;;;;26.52;12.15;;;;;;;;;;5588814;31;35336;-72
2023/12/12 14:15:16;;;;;;;27.02;12.20;;;;;;;;;;5588589;31;35133;-72
2023/12/12 14:18:19;;;;;;;28.62;12.23;;;;;;;;;;5588452;31;34425;-72
2023/12/12 14:21:22;;;;;;;27.25;11.98;;;;;;;;;;5588836;31;34461;-73
2023/12/12 14:24:25;;;;;;;22.83;11.85;;;;;;;;;;5588272;31;34609;-72
2023/12/12 14:27:27;;;;;;;21.25;10.82;;;;;;;;;;5588537;31;34143;-72
2023/12/12 14:30:31;;;;;;;23.55;11.48;;;;;;;;;;5588281;31;34492;-72
2023/12/12 14:33:33;;;;;;;25.83;11.50;;;;;;;;;;5588254;31;34501;-73
2023/12/12 14:36:36;;;;;;;25.00;11.40;;;;;;;;;;5588256;31;35061;-73
2023/12/12 14:39:38;;;;;;;24.63;11.73;;;;;;;;;;5588507;31;34996;-72
2023/12/12 14:42:41;;;;;;;27.67;12.15;;;;;;;;;;5588030;31;35189;-72
2023/12/12 14:45:43;;;;;;;21.05;12.50;;;;;;;;;;5587756;31;34188;-72
2023/12/12 14:48:47;;;;;;;29.95;12.48;;;;;;;;;;5588201;31;35174;-73
2023/12/12 14:51:50;;;;;;;22.08;12.02;;;;;;;;;;5588151;31;34273;-72
2023/12/12 14:54:53;;;;;;;26.77;12.70;;;;;;;;;;5586818;31;35182;-72
2023/12/12 14:57:55;;;;;;;24.83;12.50;;;;;;;;;;5588089;31;34475;-73
2023/12/12 15:01:00;;;;;;;27.73;12.50;;;;;;;;;;5587563;31;34618;-74
2023/12/12 15:04:03;;;;;;;25.70;12.48;;;;;;;;;;5588309;31;34317;-73
2023/12/12 15:07:06;;;;;;;31.10;11.85;;;;;;;;;;5587969;31;35096;-73
2023/12/12 15:10:09;;;;;;;25.65;12.18;;;;;;;;;;5588221;31;34126;-73
2023/12/12 15:13:12;;;;;;;25.77;12.70;;;;;;;;;;5587728;31;34615;-72
2023/12/12 15:16:14;;;;;;;26.58;12.37;;;;;;;;;;5587923;31;34396;-70
2023/12/12 15:19:17;;;;;;;24.87;13.40;;;;;;;;;;5587654;31;34498;-71
2023/12/12 15:22:21;;;;;;;25.08;13.00;;;;;;;;;;5587775;31;35052;-72
2023/12/12 15:25:24;;;;;;;22.42;12.25;;;;;;;;;;5588253;31;35072;-71
2023/12/12 15:28:37;;;;;;;27.10;12.60;;;;;;;;;;5587984;31;34578;-72
2023/12/12 15:31:40;;;;;;;27.08;13.27;;;;;;;;;;5587005;31;34986;-71
2023/12/12 15:34:42;;;;;;;26.05;13.55;;;;;;;;;;5587466;31;34602;-71
2023/12/12 15:37:48;;;;;;;28.23;13.55;;;;;;;;;;5586710;31;34995;-71
2023/12/12 15:40:51;;;;;;;28.90;14.18;;;;;;;;;;5587601;31;34169;-71
2023/12/12 15:43:55;;;;;;;26.25;14.25;;;;;;;;;;5587108;31;35326;-71
2023/12/12 15:46:58;;;;;;;25.90;14.23;;;;;;;;;;5586924;31;34432;-72
2023/12/12 15:50:00;;;;;;;23.02;13.40;;;;;;;;;;5587846;31;34514;-70
2023/12/12 15:53:03;;;;;;;27.52;13.95;;;;;;;;;;5587130;31;34995;-71
2023/12/12 15:56:09;;;;;;;25.88;13.30;;;;;;;;;;5587079;31;35074;-71
2023/12/12 15:59:12;;;;;;;26.60;12.90;;;;;;;;;;5587240;31;34441;-72
2023/12/12 16:02:15;;;;;;;26.87;14.38;;;;;;;;;;5586450;31;35064;-71
2023/12/12 16:05:17;;;;;;;27.65;13.57;;;;;;;;;;5586825;31;35038;-71
2023/12/12 16:08:20;;;;;;;25.27;13.85;;;;;;;;;;5588869;31;34493;-72
2023/12/12 16:11:23;;;;;;;32.78;14.25;;;;;;;;;;5589322;31;34428;-71
2023/12/12 16:14:25;;;;;;;30.23;15.55;;;;;;;;;;5589013;31;34504;-71
2023/12/12 16:17:28;;;;;;;28.80;16.55;;;;;;;;;;5589017;31;35072;-72
2023/12/12 16:20:30;;;;;;;24.52;15.43;;;;;;;;;;5588920;31;35093;-72
2023/12/12 16:23:33;;;;;;;26.52;16.35;;;;;;;;;;5589349;31;34176;-72
2023/12/12 16:26:35;;;;;;;30.20;15.73;;;;;;;;;;5589370;31;35140;-72
2023/12/12 16:29:38;;;;;;;27.83;15.63;;;;;;;;;;5589375;31;34248;-72
2023/12/12 16:32:40;;;;;;;31.90;15.75;;;;;;;;;;5589247;31;34560;-72
2023/12/12 16:35:43;;;;;;;25.48;15.52;;;;;;;;;;5589126;31;35034;-72
2023/12/12 16:38:46;;;;;;;31.62;16.00;;;;;;;;;;5589129;31;35090;-72
2023/12/12 16:41:49;;;;;;;28.58;15.48;;;;;;;;;;5589222;31;35087;-72
2023/12/12 16:44:51;;;;;;;25.67;16.40;;;;;;;;;;5588677;31;34456;-72
2023/12/12 16:47:54;;;;;;;31.15;16.00;;;;;;;;;;5589244;31;34479;-72
2023/12/12 16:50:57;;;;;;;30.02;17.02;;;;;;;;;;5589104;31;34205;-72
2023/12/12 16:53:59;;;;;;;30.42;17.05;;;;;;;;;;5589383;31;34972;-72
2023/12/12 16:57:03;;;;;;;29.20;16.95;;;;;;;;;;5589190;31;35074;-72
2023/12/12 17:00:10;;;;;;;30.95;17.12;;;;;;;;;;5588342;31;34635;-72
2023/12/12 17:03:13;;;;;;;27.45;17.15;;;;;;;;;;5588927;31;34406;-72
2023/12/12 17:06:16;;;;;;;27.45;18.33;;;;;;;;;;5589062;31;34346;-72
2023/12/12 17:09:18;;;;;;;31.42;19.27;;;;;;;;;;5589376;31;34464;-72
2023/12/12 17:12:22;;;;;;;27.33;17.92;;;;;;;;;;5588765;31;35085;-72
2023/12/12 17:15:25;;;;;;;34.13;18.20;;;;;;;;;;5589011;31;34868;-72
2023/12/12 17:18:27;;;;;;;26.83;17.83;;;;;;;;;;5588841;31;35043;-72
2023/12/12 17:21:30;;;;;;;28.27;17.35;;;;;;;;;;5588915;31;34418;-72
2023/12/12 17:24:33;;;;;;;28.60;17.40;;;;;;;;;;5588883;31;34404;-72
2023/12/12 17:27:36;;;;;;;28.73;17.95;;;;;;;;;;5589177;31;35120;-72
2023/12/12 17:30:40;;;;;;;31.60;19.20;;;;;;;;;;5588841;31;34430;-71
2023/12/12 17:33:43;;;;;;;33.75;18.40;;;;;;;;;;5589201;31;34392;-72
2023/12/12 17:36:46;;;;;;;27.25;18.17;;;;;;;;;;5589020;31;34520;-72
2023/12/12 17:39:48;;;;;;;28.35;18.12;;;;;;;;;;5588889;31;34169;-72
2023/12/12 17:42:51;;;;;;;35.20;20.40;;;;;;;;;;5588640;31;34391;-71